Time;durP1;ratioP1;P1;durP2;ratioP2;P2;SDS_P1;SDS_P2;PMS_P1;PMS_P2;Temp;Humidity;BMP_temperature;BMP_pressure;BME280_temperature;BME280_humidity;BME280_pressure;Samples;Min_cycle;Max_cycle;Signal;HPM_P1;HPM_P2
2022/01/17 00:01:25;;;;;;;;;21.00;21.00;;;;;;;;3;117066062;129304191;-83
2022/01/17 00:07:41;;;;;;;;;20.00;6.50;;;;;;;;3;118874434;139557864;-83
2022/01/17 00:14:34;;;;;;;;;2.00;2.00;;;;;;;;3;130554722;139535832;-83
2022/01/17 00:20:34;;;;;;;;;;;;;;;;;;3;114458760;115530546;-84
2022/01/17 00:24:54;;;;;;;;;23.50;14.50;;;;;;;;4;37605516;74464912;-84
2022/01/17 00:30:56;;;;;;;;;13.00;13.00;;;;;;;;3;113959014;117050891;-84
2022/01/17 00:37:07;;;;;;;;;19.00;19.00;;;;;;;;3;123898526;129978719;-84
2022/01/17 00:43:38;;;;;;;;;18.00;10.00;;;;;;;;3;129942259;130553975;-84
2022/01/17 00:49:56;;;;;;;;;;;;;;;;;;3;117049552;130553920;-83
2022/01/17 00:55:50;;;;;;;;;5.00;5.00;;;;;;;;3;108276406;124223460;-84
2022/01/17 01:01:57;;;;;;;;;39.00;31.50;;;;;;;;3;122113295;128167828;-83
2022/01/17 01:08:29;;;;;;;;;25.50;15.50;;;;;;;;3;130214864;130553551;-84
2022/01/17 01:14:46;;;;;;;;;;;;;;;;;;3;114949720;130554968;-84
2022/01/17 01:33:48;;;;;;;;;24.00;13.00;;;;;;;;3;129912070;130552748;-83
2022/01/17 01:40:16;;;;;;;;;;;;;;;;;;3;117050667;130554290;-83
2022/01/17 01:46:10;;;;;;;;;10.50;10.50;;;;;;;;3;110016339;120574058;-83
2022/01/17 01:50:32;;;;;;;;;23.50;23.50;;;;;;;;3;66861669;88784760;-83
2022/01/17 01:55:52;;;;;;;;;37.00;19.00;;;;;;;;3;112877100;115838355;-83
2022/01/17 02:01:38;;;;;;;;;30.50;30.00;;;;;;;;5;28585025;96251497;-83
2022/01/17 02:05:57;;;;;;;;;;;;;;;;;;3;36327947;124288749;-83
2022/01/17 02:10:10;;;;;;;;;9.00;9.00;;;;;;;;3;85763757;93313676;-83
2022/01/17 02:15:46;;;;;;;;;24.50;24.50;;;;;;;;4;44381245;87713799;-83
2022/01/17 02:20:45;;;;;;;;;;;;;;;;;;152856;30;88925917;-83
2022/01/17 02:27:12;;;;;;;;;5.50;5.50;;;;;;;;3;117048999;130556411;-83
2022/01/17 02:32:24;;;;;;;;;28.00;16.50;;;;;;;;3;64283342;117049043;-83
2022/01/17 02:38:52;;;;;;;;;21.00;21.00;;;;;;;;3;130570276;139558954;-83
2022/01/17 02:45:37;;;;;;;;;6.50;6.50;;;;;;;;3;130553756;139568121;-83
2022/01/17 02:50:27;;;;;;;;;;;;;;;;;;3;39160894;130555453;-83
2022/01/17 02:55:59;;;;;;;;;16.00;13.50;;;;;;;;3;98396740;118654986;-83
2022/01/17 03:01:18;;;;;;;;;45.50;32.50;;;;;;;;3;102394475;122123470;-83
2022/01/17 03:06:19;;;;;;;;;22.50;17.50;;;;;;;;3;96178479;106128639;-83
2022/01/17 03:11:12;;;;;;;;;13.50;13.50;;;;;;;;3;88267786;95794342;-83
2022/01/17 03:15:56;;;;;;;;;43.50;22.00;;;;;;;;3;84632057;97018305;-83
2022/01/17 03:20:42;;;;;;;;;28.50;20.50;;;;;;;;3;94345295;104703550;-83
2022/01/17 03:25:27;;;;;;;;;38.00;29.50;;;;;;;;3;92324475;99961942;-83
2022/01/17 03:29:56;;;;;;;;;19.50;19.50;;;;;;;;3;80115071;90556883;-83
2022/01/17 03:33:27;;;;;;;;;27.00;26.50;;;;;;;;3;78203680;86581554;-83
2022/01/17 03:38:02;;;;;;;;;26.00;21.00;;;;;;;;61246;30;91071817;-83
2022/01/17 03:42:30;;;;;;;;;36.50;30.50;;;;;;;;3;89933010;95533877;-83
2022/01/17 03:47:26;;;;;;;;;28.00;28.00;;;;;;;;3;97616624;104467579;-83
2022/01/17 03:51:34;;;;;;;;;10.00;4.50;;;;;;;;3;77932048;78446316;-83
2022/01/17 03:55:34;;;;;;;;;45.50;19.50;;;;;;;;3;72173346;75407258;-83
2022/01/17 03:59:25;;;;;;;;;32.50;24.50;;;;;;;;3;83625168;96534636;-83
2022/01/17 04:02:36;;;;;;;;;19.50;15.50;;;;;;;;5;24952418;52185547;-83
2022/01/17 04:07:47;;;;;;;;;;;;;;;;;;68958;30;125654018;-83
2022/01/17 04:12:28;;;;;;;;;19.50;10.50;;;;;;;;3;94889476;102668864;-82
2022/01/17 04:18:33;;;;;;;;;18.50;18.50;;;;;;;;4;57694790;94137588;-83
2022/01/17 04:24:28;;;;;;;;;;;;;;;;;;3;117050113;130552373;-82
2022/01/17 04:29:11;;;;;;;;;9.50;5.50;;;;;;;;3;87176758;97133783;-83
2022/01/17 04:33:44;;;;;;;;;16.50;16.50;;;;;;;;3;92054948;105214693;-82
2022/01/17 04:37:52;;;;;;;;;20.50;20.50;;;;;;;;3;64203525;84992042;-82
2022/01/17 04:41:51;;;;;;;;;26.50;18.50;;;;;;;;3;80831149;82252230;-83
2022/01/17 04:45:07;;;;;;;;;18.50;17.00;;;;;;;;974415;30;52918907;-83
2022/01/17 04:47:33;;;;;;;;;17.00;15.00;;;;;;;;2012963;30;9202202;-83
2022/01/17 04:49:58;;;;;;;;;20.00;16.00;;;;;;;;3910480;29;1593573;-83
2022/01/17 04:52:24;;;;;;;;;20.75;14.50;;;;;;;;3751506;30;2292804;-83
2022/01/17 04:54:54;;;;;;;;;14.50;8.00;;;;;;;;3511868;30;18726311;-83
2022/01/17 05:00:30;;;;;;;;;;;;;;;;;;3;80861714;130554563;-83
2022/01/17 05:06:11;;;;;;;;;3.50;3.50;;;;;;;;3;106109629;117875492;-83
2022/01/17 05:11:48;;;;;;;;;10.50;8.50;;;;;;;;3;113533814;122127025;-83
2022/01/17 05:22:54;;;;;;;;;14.50;14.50;;;;;;;;3;97540816;107848114;-82
2022/01/17 05:28:06;;;;;;;;;9.00;9.00;;;;;;;;3;96637310;108198365;-82
2022/01/17 05:33:22;;;;;;;;;17.50;17.50;;;;;;;;3;107159481;114176152;-83
2022/01/17 05:38:43;;;;;;;;;14.00;14.00;;;;;;;;3;105196770;110744120;-82
2022/01/17 05:43:43;;;;;;;;;13.00;13.00;;;;;;;;3;94499429;100798136;-83
2022/01/17 05:48:32;;;;;;;;;18.50;14.50;;;;;;;;3;89652133;99627985;-82
2022/01/17 05:51:10;;;;;;;;;14.50;14.50;;;;;;;;7;8348978;83675290;-82
2022/01/17 05:56:58;;;;;;;;;9.00;9.00;;;;;;;;4;21935498;104626298;-82
2022/01/17 06:03:07;;;;;;;;;6.00;6.00;;;;;;;;3;107959490;130553109;-82
2022/01/17 06:09:06;;;;;;;;;;;;;;;;;;3;117029080;130455728;-82
2022/01/17 06:12:03;;;;;;;;;27.50;15.50;;;;;;;;3;59655406;93493134;-82
2022/01/17 06:14:50;;;;;;;;;37.00;28.00;;;;;;;;13;9718442;19434897;-82
2022/01/17 06:17:39;;;;;;;;;6.50;6.50;;;;;;;;9;16729759;21710701;-83
2022/01/17 06:20:29;;;;;;;;;10.00;6.50;;;;;;;;11;13062222;20559604;-83
2022/01/17 06:23:16;;;;;;;;;7.00;7.00;;;;;;;;10;13318447;22385787;-82
2022/01/17 06:25:41;;;;;;;;;21.75;16.00;;;;;;;;1834688;29;15640291;-83
2022/01/17 06:28:06;;;;;;;;;16.00;13.33;;;;;;;;1494873;30;25685153;-82
2022/01/17 06:32:48;;;;;;;;;;;;;;;;;;1063664;30;104192095;-82
2022/01/17 06:37:25;;;;;;;;;2.50;2.50;;;;;;;;3;86941704;93958633;-83
2022/01/17 06:41:53;;;;;;;;;29.50;15.50;;;;;;;;3;79396680;89360729;-83
2022/01/17 06:46:17;;;;;;;;;6.50;6.50;;;;;;;;3;81354077;91720481;-84
2022/01/17 06:50:40;;;;;;;;;20.00;20.00;;;;;;;;3;90706449;92150847;-82
2022/01/17 06:55:42;;;;;;;;;17.00;17.00;;;;;;;;520720;30;75940018;-82
2022/01/17 07:00:40;;;;;;;;;17.00;17.00;;;;;;;;3;101322801;107757022;-82
2022/01/17 07:05:40;;;;;;;;;19.00;19.00;;;;;;;;3;99001526;104053895;-82
2022/01/17 07:10:28;;;;;;;;;22.50;15.50;;;;;;;;3;87126720;95764700;-82
2022/01/17 07:15:08;;;;;;;;;27.00;15.00;;;;;;;;3;84317383;94021959;-83
2022/01/17 07:18:23;;;;;;;;;17.50;16.00;;;;;;;;3;68140147;96637868;-83
2022/01/17 07:23:43;;;;;;;;;21.00;17.00;;;;;;;;496695;30;118216915;-83
2022/01/17 07:29:49;;;;;;;;;19.00;17.50;;;;;;;;3;121638045;125264726;-82
2022/01/17 07:35:49;;;;;;;;;21.00;15.50;;;;;;;;3;105126065;117587154;-84
2022/01/17 07:41:30;;;;;;;;;18.00;16.50;;;;;;;;3;107143100;120611348;-84
2022/01/17 07:54:14;;;;;;;;;7.00;5.00;;;;;;;;3;127668118;130551546;-87
2022/01/17 08:00:31;;;;;;;;;;;;;;;;;;3;117050895;130548957;-84
2022/01/17 08:06:14;;;;;;;;;13.00;8.00;;;;;;;;3;107599898;117230433;-83
2022/01/17 08:11:41;;;;;;;;;44.00;30.50;;;;;;;;3;109612297;112947494;-83
2022/01/17 08:17:39;;;;;;;;;37.50;23.50;;;;;;;;3;112568076;126417359;-84
2022/01/17 08:23:25;;;;;;;;;49.50;21.50;;;;;;;;3;105831023;114066518;-83
2022/01/17 08:29:25;;;;;;;;;28.00;24.00;;;;;;;;3;107011153;117322090;-85
2022/01/17 08:35:30;;;;;;;;;20.00;20.00;;;;;;;;3;118489039;126073414;-84
2022/01/17 08:42:12;;;;;;;;;9.50;7.50;;;;;;;;3;130557017;139567078;-89
2022/01/17 08:48:48;;;;;;;;;;;;;;;;;;3;117052617;130559102;-86
2022/01/17 08:54:31;;;;;;;;;10.00;6.00;;;;;;;;3;105621560;116777979;-86
2022/01/17 09:00:34;;;;;;;;;18.50;18.50;;;;;;;;3;116745531;126895356;-86
2022/01/17 09:07:18;;;;;;;;;25.50;13.50;;;;;;;;3;130553824;138152624;-86
2022/01/17 09:13:47;;;;;;;;;;;;;;;;;;3;117052299;130553505;-86
2022/01/17 09:20:08;;;;;;;;;22.00;22.00;;;;;;;;3;114105569;130556363;-86
2022/01/17 09:26:38;;;;;;;;;31.00;19.00;;;;;;;;3;122974569;139561394;-87
2022/01/17 09:33:10;;;;;;;;;24.50;12.50;;;;;;;;3;128584620;130554320;-86
2022/01/17 09:39:56;;;;;;;;;;;;;;;;;;3;117051524;130553427;-87
2022/01/17 09:45:49;;;;;;;;;15.50;15.50;;;;;;;;3;107989237;121804404;-86
2022/01/17 09:59:01;;;;;;;;;;;;;;;;;;;;;
2022/01/17 10:05:22;;;;;;;;;;;;;;;;;;3;117077742;130554570;-86
2022/01/17 10:11:40;;;;;;;;;;;;;;;;;;;;;
2022/01/17 10:17:58;;;;;;;;;27.50;18.00;;;;;;;;3;121575565;128154392;-86
2022/01/17 10:24:50;;;;;;;;;;;;;;;;;;;;;
2022/01/17 10:39:37;;;;;;;;;18.00;15.00;;;;;;;;3;110235928;121749126;-85
2022/01/17 10:46:24;;;;;;;;;22.50;19.50;;;;;;;;3;119300139;128569300;-86
2022/01/17 10:52:58;;;;;;;;;21.00;17.00;;;;;;;;3;130553934;131365076;-86
2022/01/17 10:59:22;;;;;;;;;;;;;;;;;;3;117051351;130554633;-86
2022/01/17 11:05:21;;;;;;;;;12.00;12.00;;;;;;;;3;108719821;122101601;-85
2022/01/17 11:11:33;;;;;;;;;29.00;29.00;;;;;;;;3;123179546;129155320;-85
2022/01/17 11:18:17;;;;;;;;;6.50;6.50;;;;;;;;3;130555014;132952921;-85
2022/01/17 11:24:44;;;;;;;;;;;;;;;;;;3;117051997;130558199;-85
2022/01/17 11:30:56;;;;;;;;;21.50;17.50;;;;;;;;3;112053117;125488858;-85
2022/01/17 12:16:37;;;;;;;;;20.00;9.00;;;;;;;;3;110380986;115626364;-86
2022/01/17 12:22:43;;;;;;;;;52.50;26.50;;;;;;;;3;108585344;123234949;-86
2022/01/17 12:28:59;;;;;;;;;29.00;23.50;;;;;;;;3;123884057;132600122;-86
2022/01/17 12:35:43;;;;;;;;;10.50;10.50;;;;;;;;3;130561507;132858256;-87
2022/01/17 12:42:03;;;;;;;;;;;;;;;;;;3;117049901;130558057;-88
2022/01/17 12:48:05;;;;;;;;;22.00;22.00;;;;;;;;3;111299665;123501488;-87
2022/01/17 12:54:16;;;;;;;;;35.50;33.50;;;;;;;;3;122767336;131718964;-87
2022/01/17 13:01:01;;;;;;;;;5.00;5.00;;;;;;;;3;130554454;132499514;-86
2022/01/17 13:07:40;;;;;;;;;;;;;;;;;;3;117050050;130557363;-86
2022/01/17 13:13:46;;;;;;;;;18.50;18.50;;;;;;;;3;110357037;122612502;-86
2022/01/17 13:20:26;;;;;;;;;;;;;;;;;;;;;
2022/01/17 13:27:44;;;;;;;;;;;;;;;;;;;;;
2022/01/17 13:34:43;;;;;;;;;;;;;;;;;;3;117077865;130555688;-85
2022/01/17 13:40:46;;;;;;;;;8.50;8.50;;;;;;;;3;109114242;121626704;-85
2022/01/17 13:47:17;;;;;;;;;30.00;27.00;;;;;;;;3;121952849;129323238;-85
2022/01/17 13:54:07;;;;;;;;;11.00;11.00;;;;;;;;3;130555380;139567186;-84
2022/01/17 14:00:35;;;;;;;;;;;;;;;;;;3;117048291;130553741;-83
2022/01/17 14:06:54;;;;;;;;;33.00;25.00;;;;;;;;3;117063029;130556564;-84
2022/01/17 14:13:22;;;;;;;;;15.00;15.00;;;;;;;;3;130562284;139559295;-85
2022/01/17 14:20:09;;;;;;;;;9.50;6.50;;;;;;;;3;130554702;139565715;-84
2022/01/17 14:26:37;;;;;;;;;;;;;;;;;;3;117049071;130553823;-85
2022/01/17 14:33:09;;;;;;;;;29.50;25.50;;;;;;;;3;117063206;130557272;-85
2022/01/17 14:39:37;;;;;;;;;14.50;9.50;;;;;;;;3;130562404;139557312;-85
2022/01/17 14:46:22;;;;;;;;;21.00;9.00;;;;;;;;3;129786126;139566273;-85
2022/01/17 14:52:42;;;;;;;;;;;;;;;;;;3;117051695;130354973;-87
2022/01/17 15:04:54;;;;;;;;;19.00;19.00;;;;;;;;3;119250121;129162474;-88
2022/01/17 15:11:22;;;;;;;;;11.50;9.00;;;;;;;;3;126622819;130545865;-85
2022/01/17 15:17:37;;;;;;;;;;;;;;;;;;3;117046794;130553247;-85
2022/01/17 15:23:22;;;;;;;;;9.00;9.00;;;;;;;;3;105019723;115447650;-85
2022/01/17 15:26:38;;;;;;;;;17.00;17.00;;;;;;;;3;75163272;119443293;-85
2022/01/17 15:32:25;;;;;;;;;13.50;13.50;;;;;;;;924917;29;92165726;-85
2022/01/17 15:38:13;;;;;;;;;;;;;;;;;;3;113475480;130554806;-85
2022/01/17 15:42:57;;;;;;;;;11.00;11.00;;;;;;;;3;86291816;98253869;-84
2022/01/17 15:47:49;;;;;;;;;20.50;19.00;;;;;;;;3;98282161;104138673;-84
2022/01/17 15:52:54;;;;;;;;;20.00;11.00;;;;;;;;3;97368070;107749111;-84
2022/01/17 15:57:50;;;;;;;;;35.50;15.50;;;;;;;;3;89248099;97981708;-84
2022/01/17 16:02:36;;;;;;;;;31.00;14.50;;;;;;;;3;87607169;99403109;-85
2022/01/17 16:07:35;;;;;;;;;16.00;16.00;;;;;;;;3;100923492;104453116;-86
2022/01/17 16:12:36;;;;;;;;;20.00;20.00;;;;;;;;3;96387473;103694426;-82
2022/01/17 16:17:26;;;;;;;;;20.00;20.00;;;;;;;;3;86283593;94744227;-87
2022/01/17 16:22:16;;;;;;;;;14.00;14.00;;;;;;;;3;91562007;97820678;-86
2022/01/17 16:27:13;;;;;;;;;27.50;16.50;;;;;;;;3;100306329;106732648;-86
2022/01/17 16:32:20;;;;;;;;;27.50;11.00;;;;;;;;3;100017180;106147728;-86
2022/01/17 16:37:21;;;;;;;;;12.00;12.00;;;;;;;;3;90547906;99839583;-85
2022/01/17 16:42:18;;;;;;;;;10.00;10.00;;;;;;;;3;88327231;101256347;-82
2022/01/17 18:32:47;;;;;;;;;16.00;12.00;;;;;;;;3;97110082;103049875;-84
2022/01/17 18:38:02;;;;;;;;;13.50;10.50;;;;;;;;3;102097328;114176277;-84
2022/01/17 18:43:54;;;;;;;;;;;;;;;;;;;;;
2022/01/17 18:49:31;;;;;;;;;;;;;;;;;;;;;
2022/01/17 19:23:59;;;;;;;;;21.50;12.50;;;;;;;;3;110140844;113738355;-83
2022/01/17 19:29:09;;;;;;;;;12.50;12.50;;;;;;;;3;92309185;110180281;-82
2022/01/17 19:34:06;;;;;;;;;46.00;10.00;;;;;;;;3;93296836;94767487;-82
2022/01/17 19:38:53;;;;;;;;;21.00;13.00;;;;;;;;3;87031419;100868274;-82
2022/01/17 19:43:46;;;;;;;;;26.00;26.00;;;;;;;;3;98564635;104669672;-82
2022/01/17 19:48:48;;;;;;;;;25.00;25.00;;;;;;;;3;98678013;104292941;-82
2022/01/17 19:53:49;;;;;;;;;19.00;17.50;;;;;;;;3;87645851;98231655;-82
2022/01/17 19:58:40;;;;;;;;;40.50;26.00;;;;;;;;3;84012628;101449256;-82
2022/01/17 20:03:50;;;;;;;;;24.00;24.00;;;;;;;;3;95154719;105376369;-82
2022/01/17 20:10:22;;;;;;;;;33.50;29.00;;;;;;;;3;125735752;135568406;-82
2022/01/17 20:16:47;;;;;;;;;;;;;;;;;;3;117052613;130555241;-82
2022/01/17 20:22:58;;;;;;;;;19.00;19.00;;;;;;;;3;114608870;126286508;-83
2022/01/17 20:29:22;;;;;;;;;6.50;6.50;;;;;;;;3;126483065;139559007;-82
2022/01/17 20:37:01;;;;;;;;;12.00;8.50;;;;;;;;3;130558783;135459169;-83
2022/01/17 20:43:07;;;;;;;;;;;;;;;;;;3;117050164;130555917;-83
2022/01/17 20:49:19;;;;;;;;;34.00;24.50;;;;;;;;3;114041482;127381254;-84
2022/01/17 20:55:44;;;;;;;;;5.00;5.00;;;;;;;;3;127725332;137353604;-84
2022/01/17 21:02:27;;;;;;;;;13.50;13.50;;;;;;;;3;130556255;136993252;-84
2022/01/17 21:08:52;;;;;;;;;43.00;33.00;;;;;;;;3;117055285;130555021;-84
2022/01/17 21:15:03;;;;;;;;;41.50;27.00;;;;;;;;3;113114848;125753522;-84
2022/01/17 21:21:32;;;;;;;;;8.50;8.50;;;;;;;;3;126565566;139561894;-84
2022/01/17 21:28:42;;;;;;;;;10.00;10.00;;;;;;;;3;130554925;136600436;-84
2022/01/17 21:35:05;;;;;;;;;;;;;;;;;;3;117048461;130554473;-85
2022/01/17 21:41:24;;;;;;;;;;;;;;;;;;;;;
2022/01/17 21:47:46;;;;;;;;;15.00;11.00;;;;;;;;3;127260396;137317434;-86
2022/01/17 22:29:38;;;;;;;;;;;;;;;;;;;;;
2022/01/17 22:36:37;;;;;;;;;;;;;;;;;;;;;
2022/01/17 22:57:07;;;;;;;;;;;;;;;;;;3;117051611;130553607;-84
2022/01/17 23:11:05;;;;;;;;;;;;;;;;;;;;;
2022/01/17 23:45:54;;;;;;;;;17.50;13.50;;;;;;;;3;130553963;135153669;-84
2022/01/17 23:52:30;;;;;;;;;;;;;;;;;;;;;
2022/01/17 23:59:16;;;;;;;;;21.00;21.00;;;;;;;;3;112961327;125682221;-85
